Ride Results

Fernvale Last Chance (30-04-2006)
Ride distance: 80.0 km

Outcomes - Fernvale Last Chance (30-04-2006)
Division No. of Entries Retired / DNE Completed Withdrawn Ineligible V/O Percentage Completed
HW 24 - 10 3 - 11 41.67%
MW 39 - 24 2 - 13 61.54%
LW 15 - 9 - - 6 60.00%
JN 9 - 6 - - 3 66.67%
Totals 87 - 49 5 - 33 56.32%
Results - Fernvale Last Chance (30-04-2006)
No. Rider Horse Place Time Leg Speeds Total
Km/Hr
H/R bpm
Heavyweight
167 Maurice Crombie Te Auri Zahir 1 6:10:00 13.7, 12.9, 11.2 12.97 37, 42, 45, 52 (Avg:46)
182 Maurice Gray Ashraf Ibn Amir 1 6:10:00 13.7, 12.9, 11.2 12.97 42, 41, 52, 53 (Avg:48)
173 Virginia Beard Longrun Silver Shallum 3 6:26:00 11.4, 13.5, 13.6 12.44 35, 38, 44, 50 (Avg:44)
126 Shane Butler Smokee 4 6:43:00 12.9, 10.6, 11.6 11.91 32, 44, 52, 49 (Avg:48)
154 Derek Armitage Moorah Park Mickerby 5 7:29:00 10.2, 8.9, 19.5 10.69 36, 49, 48, 50 (Avg:49)
166 David Anderson (DAD) Hazeldean Eli 6 7:48:00 10.2, 10.9, 9.2 10.26 41, 53, 55, 52 (Avg:53)
147 Paul Lengronne Deep Forest Contest 7 7:52:00 9.3, 10.8, 11.5 10.17 30, 49, 51, 50 (Avg:50)
131 John Bright Monty 8 7:57:00 10.6, 9.2, 10.1 10.06 33, 44, 40, 41 (Avg:41)
188 Peter Casey Fred 9 8:11:00 10.5, 9.6, 8.3 9.78 38, 41, 49, 41 (Avg:43)
141 Greg Garred Shannonwood Sub 9 8:11:00 10.4, 9.4, 8.8 9.78 37, 39, 44, 40 (Avg:41)
106 Paul Fitzgerald Merton Amadeus Heart Rate L3 0:00:00 11.8, 10.9, 10.7 - 43, 50, 50, 67 (Avg:55)
160 Peter McDonald Wollumbin Farah Lame L3 0:00:00 11.3, 10.5, 8.9 - 45, 43, 52, 53 (Avg:49)
144 Adrian Hope-Hodgetts Cobber Heart Rate L2 0:00:00 8.8, 9.2 - 37, 45, 65 (Avg:55)
184 David Horton Ambira Bansim Lame L2 0:00:00 11.1, 10.6 - 40, 48, 52 (Avg:50)
145 Leanne Le Claire Aloha Kamahl Metabolics non-invasive L2 0:00:00 13.1, 12.7 - 41, 47, 48 (Avg:47)
125 Bob Sample Drumlin Anysa Heart Rate L2 0:00:00 12.3, 11.2 - 36, 47, 69 (Avg:58)
109 John Stewart Rushworth Ernie Miller Widthdrawn L2 0:00:00 - - 35, 49, 51 (Avg:50)
120 Samantha Dobson Shardell Galahad Widthdrawn L1 0:00:00 - - 40, 46 (Avg:46)
149 Kim Goss Snip Heart Rate L1 0:00:00 12.3 - 34, 59 (Avg:59)
123 Garry Lewis Shian Lame L1 0:00:00 14.6 - 38, 40 (Avg:40)
101 Joyce McGowan Whitehills Shadow Heart Rate L1 0:00:00 9.6 - 36, 61 (Avg:61)
137 John Storrs Ralvon Shamark Heart Rate L1 0:00:00 11.3 - 34, 57 (Avg:57)
189 Len Law Ming-Gah Teranus Metabolics non-invasive P/R 0:00:00 - - 40
170 John Simpson Charaway Chaivu Widthdrawn P/R 0:00:00 - - 32
Middleweight
156 Scott Hill Kalkadoon Kynuna 1 5:46:00 13.9, 14.5, 12.6 13.87 32, 43, 45, 42 (Avg:43)
157 Karen Johanson Kalkadoon Kismet 1 5:46:00 13.9, 14.5, 12.6 13.87 34, 44, 38, 42 (Avg:41)
135 Ursula Keenan Mathew 3 6:02:00 13.8, 13.7, 11.2 13.26 40, 49, 53, 46 (Avg:49)
152 Kylie Toole Crisinda Portrait 4 6:26:00 13.1, 11.9, 11.5 12.44 31, 41, 54, 53 (Avg:49)
119 Bridget Nottle Splendacrest Dryad 5 6:28:00 12.4, 12.6, 11.8 12.37 42, 40, 47, 44 (Avg:43)
103 Tanya Zanow Rodborough Rezon 6 6:38:00 12.3, 12.1, 11.1 12.06 35, 49, 52, 51 (Avg:50)
114 Arch Felton Heathfield Pizzaz 7 6:39:00 12.3, 11.8, 11.6 12.03 38, 44, 46, 51 (Avg:47)
111 Stephen Gray Ashraf Sparkling Panache 8 6:43:00 12.9, 10.6, 11.6 11.91 38, 44, 48, 52 (Avg:48)
127 Kathleen Roberts Kyuna Tess 8 6:43:00 11.4, 9.9, 20.4 11.91 33, 50, 49, 49 (Avg:49)
162 Molly Hall Gleniph Saaminski 10 6:44:00 11.8, 12.0, 11.5 11.88 36, 39, 41, 51 (Avg:43)
175 Lauren Cox Gift 11 7:03:00 12.3, 12.0, 8.6 11.35 34, 50, 51, 52 (Avg:51)
105 Caroline Fitzgerald Dunwingeri Bint Farhan 11 7:03:00 11.8, 10.9, 10.7 11.35 36, 41, 41, 43 (Avg:41)
178 Fiona Fenech Belgari Fidesz 13 7:08:00 12.6, 9.7, 10.7 11.21 39, 47, 48, 45 (Avg:46)
190 Marilyn Wade Nikki 14 7:13:00 11.8, 10.0, 11.1 11.09 37, 48, 50, 48 (Avg:48)
136 Jackie Swan Longrun Anika 15 7:30:00 11.5, 9.8, 9.8 10.67 27, 44, 43, 38 (Avg:41)
159 Brad Barwell Anatase Roseanna 16 7:51:00 10.8, 9.9, 9.0 10.19 41, 44, 43, 49 (Avg:45)
146 Marion Lengronne Cameo Renezar 17 7:52:00 9.3, 10.8, 11.5 10.17 47, 46, 40, 48 (Avg:44)
187 Bill Ward Al Wathba Shakarma 18 8:07:00 11.0, 9.0, 8.7 9.86 36, 54, 52, 55 (Avg:53)
186 Angela Ward Ubejane 18 8:07:00 11.0, 9.0, 8.7 9.86 36, 44, 50, 48 (Avg:47)
129 Lyndell Abercrombie Lindall Aleila 20 8:37:00 9.1, 9.9, 8.5 9.28 38, 40, 41, 43 (Avg:41)
128 Denise Kaye Die Kinder Jester 20 8:37:00 9.1, 9.1, 9.8 9.28 34, 40, 39, 42 (Avg:40)
183 Sharon Russell Lindall Frankie Jay 20 8:37:00 9.1, 9.9, 8.5 9.28 38, 53, 47, 47 (Avg:49)
133 Ken Moir Moondarra Diamonds'n Lace 23 8:52:00 8.2, 11.0, 8.4 9.02 34, 37, 46, 46 (Avg:43)
192 Michelle Morrison Bullarto Fiorelli 24 8:57:00 9.1, 8.8, 8.5 8.94 46, 46, 48, 48 (Avg:47)
108 Bruce Seaward Monterra Ibn Silver Magic Lame L3 0:00:00 12.7, 10.8, 10.7 - 32, 53, 55, 51 (Avg:53)
130 Albie Knight Rage On Metabolics non-invasive L2 0:00:00 8.2, 11.0 - 34, 44, 53 (Avg:48)
142 Jaime Mansbridge Shannonwood Ezar Lame L2 0:00:00 10.4, 9.4 - 41, 48, 0 (Avg:24)
138 Linda Meredith Anglesea Summerleas Lame L2 0:00:00 9.3, 10.8 - 38, 43, 48 (Avg:45)
110 Wendy Smith Midu Jacelle Lame L2 0:00:00 10.5, 9.1 - 36, 46, 56 (Avg:51)
163 Donna Brooker Hirstglen Elite Heart Rate L1 0:00:00 13.1 - 34, 60 (Avg:60)
180 Graysen Clarke Ejay Chevage Heart Rate L1 0:00:00 9.9 - 42, 59 (Avg:59)
181 Sue Daniell Gurangada Khavalier Widthdrawn L1 0:00:00 - - 37, 54 (Avg:54)
134 Dale Hargreaves Castlebar Truman Widthdrawn L1 0:00:00 - - 35, 55 (Avg:55)
121 Emma Holland Burralga Whisky Lame L1 0:00:00 8.8 - 36, 41 (Avg:41)
169 Simone Krahnen Kyuna Cherakee Lame L1 0:00:00 10.3 - 39, 40 (Avg:40)
102 Libby Nichols Tallaroon Crystal Rose Heart Rate L1 0:00:00 9.6 - 36, 62 (Avg:62)
116 Nicole Urquhart Anarkali Aneesa Lame L1 0:00:00 12.7 - 43, 48 (Avg:48)
115 David Urquhart Danis Park Maggie Lame L1 0:00:00 13.8 - 34, 34 (Avg:34)
179 Michael Taylor A Touch Of Frost Lame P/R 0:00:00 - - 36
Lightweight
143 Jennifer Annetts Churinga Witezan's Dream 1 6:10:00 13.1, 12.7, 12.8 12.97 33, 44, 45, 45 (Avg:44)
104 Janelle Weise Die Kinder Kashah 2 6:38:00 12.3, 12.1, 11.1 12.06 38, 43, 50, 55 (Avg:49)
158 Cassie Saunders Lexington Matisse 3 7:51:00 10.8, 9.9, 9.0 10.19 47, 46, 43, 52 (Avg:47)
164 Carly Moore Rayjen Boaz 4 7:52:00 9.3, 11.0, 11.3 10.17 32, 43, 44, 48 (Avg:45)
118 Anne Jones Tongarra Red Cloud 5 8:02:00 10.3, 9.9, 9.0 9.96 38, 45, 40, 47 (Avg:44)
148 Joy Rose Fernside Chenoah Tatanya 6 8:04:00 11.4, 9.6, 7.5 9.92 38, 43, 56, 60 (Avg:53)
112 Barbara Draheim Danbar Silk N' Satinn 7 8:17:00 10.9, 8.5, 8.7 9.66 36, 44, 38, 46 (Avg:42)
153 Sandra Bishop Burralga Jack Daniels 8 8:57:00 8.8, 9.3, 8.5 8.94 44, 45, 47, 53 (Avg:48)
176 Karen Winkel Mario 8 8:57:00 9.1, 8.8, 8.5 8.94 33, 44, 50, 49 (Avg:47)
132 Sarrah Lee Fenech Pilgrim Lame L3 0:00:00 10.6, 9.2, 10.1 - 38, 41, 54, 49 (Avg:48)
140 Leigh Rich Dmar Diplomats Image Lame L3 0:00:00 9.6, 9.7, 19.5 - 38, 40, 50, 49 (Avg:46)
139 Terri Anderson Eastwinds Song of Joy Lame L2 0:00:00 11.3, 12.3 - 48, 50, 53 (Avg:51)
185 Michael Gabriel Roheryn Cavalier Lame L2 0:00:00 11.3, 10.4 - 43, 40, 53 (Avg:46)
161 Angela Hawks Manana Gaylord Lame L1 0:00:00 11.8 - 42, 46 (Avg:46)
107 Kylie Reid Cherox Magnum Lame L1 0:00:00 12.7 - 34, 39 (Avg:39)
Junior
174 Saasha Grogan Brookleigh Maestro 1 6:17:00 12.3, 13.0, 13.4 12.73 32, 51, 38, 47 (Avg:45)
113 Terrence Weier Jayhal Shazal 2 6:28:00 12.1, 12.3, 13.0 12.37 36, 43, 51, 60 (Avg:51)
191 Erin Krahnen Lenannlaw Vitality 3 7:13:00 11.8, 10.0, 11.1 11.09 36, 46, 49, 49 (Avg:48)
168 Colleen Krahnen Wywurri Starlight 4 8:02:00 10.3, 9.9, 9.0 9.96 40, 44, 48, 54 (Avg:48)
117 Jade Vergis Kelkette Park Silver Elite 4 8:02:00 10.3, 9.9, 9.0 9.96 35, 44, 48, 44 (Avg:45)
150 Brooke Warner Kahjeed Ibn Kahlua 6 8:42:00 8.2, 10.5, 10.2 9.20 35, 49, 52, 49 (Avg:50)
155 Carmel Trevorrow El Sarem Glyde Lame L3 0:00:00 10.2, 10.8, 11.8 - 36, 45, 52, 58 (Avg:51)
151 Zoe Locke Malricia Carly Lame L2 0:00:00 8.2, 10.4 - 34, 37, 47 (Avg:42)
177 Amaya Thomas Tallio Muftakher Lame P/R 0:00:00 - - 39